sensor_id;sensor_type;location;lat;lon;timestamp;pressure;altitude;pressure_sealevel;temperature;humidity
80749;BME280;70145;53.746;9.970;2024-03-06T00:01:42;101856.59;;;3.32;58.41
80749;BME280;70145;53.746;9.970;2024-03-06T00:04:07;101848.66;;;3.31;58.21
80749;BME280;70145;53.746;9.970;2024-03-06T00:06:32;101854.97;;;3.28;58.42
80749;BME280;70145;53.746;9.970;2024-03-06T00:08:57;101854.97;;;3.28;58.13
80749;BME280;70145;53.746;9.970;2024-03-06T00:11:23;101855.31;;;3.19;58.41
80749;BME280;70145;53.746;9.970;2024-03-06T00:13:48;101850.97;;;3.17;58.27
80749;BME280;70145;53.746;9.970;2024-03-06T00:16:14;101856.28;;;3.17;58.18
80749;BME280;70145;53.746;9.970;2024-03-06T00:18:39;101856.41;;;3.14;58.17
80749;BME280;70145;53.746;9.970;2024-03-06T00:21:05;101850.41;;;3.07;58.86
80749;BME280;70145;53.746;9.970;2024-03-06T00:23:30;101862.06;;;3.05;58.49
80749;BME280;70145;53.746;9.970;2024-03-06T00:25:56;101862.00;;;3.06;58.15
80749;BME280;70145;53.746;9.970;2024-03-06T00:28:21;101857.72;;;3.02;58.28
80749;BME280;70145;53.746;9.970;2024-03-06T00:30:46;101867.16;;;2.86;59.03
80749;BME280;70145;53.746;9.970;2024-03-06T00:33:12;101871.56;;;2.87;58.97
80749;BME280;70145;53.746;9.970;2024-03-06T00:35:37;101867.06;;;2.89;58.97
80749;BME280;70145;53.746;9.970;2024-03-06T00:38:02;101871.50;;;2.89;58.57
80749;BME280;70145;53.746;9.970;2024-03-06T00:40:28;101878.75;;;2.85;58.58
80749;BME280;70145;53.746;9.970;2024-03-06T00:42:57;101873.47;;;2.84;59.10
80749;BME280;70145;53.746;9.970;2024-03-06T00:45:23;101884.84;;;2.87;58.23
80749;BME280;70145;53.746;9.970;2024-03-06T00:47:48;101880.47;;;2.86;58.22
80749;BME280;70145;53.746;9.970;2024-03-06T00:50:14;101879.53;;;2.87;58.34
80749;BME280;70145;53.746;9.970;2024-03-06T00:52:41;101889.22;;;2.90;58.46
80749;BME280;70145;53.746;9.970;2024-03-06T00:55:08;101882.91;;;2.92;58.35
80749;BME280;70145;53.746;9.970;2024-03-06T00:57:33;101888.25;;;2.92;58.27
80749;BME280;70145;53.746;9.970;2024-03-06T00:59:58;101894.47;;;2.91;58.32
80749;BME280;70145;53.746;9.970;2024-03-06T01:02:24;101895.50;;;2.87;58.91
80749;BME280;70145;53.746;9.970;2024-03-06T01:04:49;101899.97;;;2.87;58.42
80749;BME280;70145;53.746;9.970;2024-03-06T01:07:14;101896.44;;;2.86;58.89
80749;BME280;70145;53.746;9.970;2024-03-06T01:09:39;101897.53;;;2.81;58.70
80749;BME280;70145;53.746;9.970;2024-03-06T01:12:05;101893.03;;;2.81;58.75
80749;BME280;70145;53.746;9.970;2024-03-06T01:14:30;101893.09;;;2.80;58.92
80749;BME280;70145;53.746;9.970;2024-03-06T01:16:56;101888.66;;;2.80;58.78
80749;BME280;70145;53.746;9.970;2024-03-06T01:19:21;101898.38;;;2.81;58.75
80749;BME280;70145;53.746;9.970;2024-03-06T01:21:47;101894.03;;;2.79;58.77
80749;BME280;70145;53.746;9.970;2024-03-06T01:24:13;101900.06;;;2.84;58.44
80749;BME280;70145;53.746;9.970;2024-03-06T01:26:39;101907.03;;;2.88;58.45
80749;BME280;70145;53.746;9.970;2024-03-06T01:29:05;101899.16;;;2.85;58.46
80749;BME280;70145;53.746;9.970;2024-03-06T01:31:31;101907.06;;;2.86;58.53
80749;BME280;70145;53.746;9.970;2024-03-06T01:33:56;101911.47;;;2.87;58.51
80749;BME280;70145;53.746;9.970;2024-03-06T01:36:21;101911.47;;;2.87;58.27
80749;BME280;70145;53.746;9.970;2024-03-06T01:38:47;101906.09;;;2.89;58.03
80749;BME280;70145;53.746;9.970;2024-03-06T01:41:14;101918.41;;;2.91;58.49
80749;BME280;70145;53.746;9.970;2024-03-06T01:43:39;101918.41;;;2.91;58.61
80749;BME280;70145;53.746;9.970;2024-03-06T01:46:04;101925.50;;;2.92;58.47
80749;BME280;70145;53.746;9.970;2024-03-06T01:48:30;101925.41;;;2.95;58.51
80749;BME280;70145;53.746;9.970;2024-03-06T01:50:57;101930.59;;;2.98;58.35
80749;BME280;70145;53.746;9.970;2024-03-06T01:53:27;101936.88;;;2.96;58.53
80749;BME280;70145;53.746;9.970;2024-03-06T01:55:54;101933.28;;;2.98;58.22
80749;BME280;70145;53.746;9.970;2024-03-06T01:58:20;101927.06;;;2.98;58.25
80749;BME280;70145;53.746;9.970;2024-03-06T02:00:46;101933.22;;;3.00;58.11
80749;BME280;70145;53.746;9.970;2024-03-06T02:03:12;101932.44;;;2.96;58.35
80749;BME280;70145;53.746;9.970;2024-03-06T02:05:37;101933.38;;;2.95;58.42
80749;BME280;70145;53.746;9.970;2024-03-06T02:08:04;101937.97;;;2.90;59.05
80749;BME280;70145;53.746;9.970;2024-03-06T02:10:29;101929.97;;;2.90;58.49
80749;BME280;70145;53.746;9.970;2024-03-06T02:12:55;101936.13;;;2.92;58.73
80749;BME280;70145;53.746;9.970;2024-03-06T02:15:20;101932.59;;;2.92;58.56
80749;BME280;70145;53.746;9.970;2024-03-06T02:17:46;101930.91;;;2.89;58.51
80749;BME280;70145;53.746;9.970;2024-03-06T02:20:11;101936.25;;;2.89;58.67
80749;BME280;70145;53.746;9.970;2024-03-06T02:22:40;101935.25;;;2.92;58.62
80749;BME280;70145;53.746;9.970;2024-03-06T02:25:06;101931.81;;;2.90;58.26
80749;BME280;70145;53.746;9.970;2024-03-06T02:27:31;101938.75;;;2.94;58.60
80749;BME280;70145;53.746;9.970;2024-03-06T02:29:57;101941.34;;;2.95;58.53
80749;BME280;70145;53.746;9.970;2024-03-06T02:32:23;101940.47;;;2.95;58.48
80749;BME280;70145;53.746;9.970;2024-03-06T02:34:49;101944.03;;;2.95;58.57
80749;BME280;70145;53.746;9.970;2024-03-06T02:37:15;101943.19;;;2.93;58.53
80749;BME280;70145;53.746;9.970;2024-03-06T02:39:40;101938.81;;;2.92;58.69
80749;BME280;70145;53.746;9.970;2024-03-06T02:42:08;101937.13;;;2.90;58.83
80749;BME280;70145;53.746;9.970;2024-03-06T02:44:33;101937.19;;;2.88;58.75
80749;BME280;70145;53.746;9.970;2024-03-06T02:46:59;101946.06;;;2.87;58.47
80749;BME280;70145;53.746;9.970;2024-03-06T02:49:24;101949.66;;;2.86;58.56
80749;BME280;70145;53.746;9.970;2024-03-06T02:51:50;101934.72;;;2.82;58.73
80749;BME280;70145;53.746;9.970;2024-03-06T02:54:15;101944.47;;;2.82;58.65
80749;BME280;70145;53.746;9.970;2024-03-06T02:56:40;101946.25;;;2.81;58.37
80749;BME280;70145;53.746;9.970;2024-03-06T02:59:06;101945.41;;;2.81;58.53
80749;BME280;70145;53.746;9.970;2024-03-06T03:01:31;101944.63;;;2.77;58.28
80749;BME280;70145;53.746;9.970;2024-03-06T03:03:57;101949.91;;;2.79;58.19
80749;BME280;70145;53.746;9.970;2024-03-06T03:06:22;101949.84;;;2.80;58.20
80749;BME280;70145;53.746;9.970;2024-03-06T03:08:52;101951.53;;;2.83;58.07
80749;BME280;70145;53.746;9.970;2024-03-06T03:11:17;101954.03;;;2.87;58.10
80749;BME280;70145;53.746;9.970;2024-03-06T03:13:43;101949.66;;;2.86;58.02
80749;BME280;70145;53.746;9.970;2024-03-06T03:16:18;101947.09;;;2.83;58.57
80749;BME280;70145;53.746;9.970;2024-03-06T03:18:44;101947.91;;;2.85;58.00
80749;BME280;70145;53.746;9.970;2024-03-06T03:21:10;101948.81;;;2.84;57.75
80749;BME280;70145;53.746;9.970;2024-03-06T03:23:36;101948.81;;;2.84;58.18
80749;BME280;70145;53.746;9.970;2024-03-06T03:26:02;101956.84;;;2.83;58.35
80749;BME280;70145;53.746;9.970;2024-03-06T03:28:29;101956.19;;;2.76;57.96
80749;BME280;70145;53.746;9.970;2024-03-06T03:30:54;101958.81;;;2.78;58.22
80749;BME280;70145;53.746;9.970;2024-03-06T03:33:19;101962.31;;;2.78;57.89
80749;BME280;70145;53.746;9.970;2024-03-06T03:35:45;101954.47;;;2.75;57.60
80749;BME280;70145;53.746;9.970;2024-03-06T03:38:10;101957.19;;;2.74;57.95
80749;BME280;70145;53.746;9.970;2024-03-06T03:40:35;101958.91;;;2.75;57.83
80749;BME280;70145;53.746;9.970;2024-03-06T03:43:00;101966.84;;;2.76;58.12
80749;BME280;70145;53.746;9.970;2024-03-06T03:45:31;101965.13;;;2.75;57.92
80749;BME280;70145;53.746;9.970;2024-03-06T03:47:59;101969.56;;;2.75;57.63
80749;BME280;70145;53.746;9.970;2024-03-06T03:50:24;101969.44;;;2.78;57.65
80749;BME280;70145;53.746;9.970;2024-03-06T03:52:49;101967.91;;;2.71;57.64
80749;BME280;70145;53.746;9.970;2024-03-06T03:55:15;101967.03;;;2.70;57.73
80749;BME280;70145;53.746;9.970;2024-03-06T03:57:40;101967.13;;;2.67;57.73
80749;BME280;70145;53.746;9.970;2024-03-06T04:00:06;101971.47;;;2.70;57.61
80749;BME280;70145;53.746;9.970;2024-03-06T04:02:36;101975.03;;;2.70;57.97
80749;BME280;70145;53.746;9.970;2024-03-06T04:05:01;101971.72;;;2.64;57.46
80749;BME280;70145;53.746;9.970;2024-03-06T04:07:27;101977.06;;;2.62;57.88
80749;BME280;70145;53.746;9.970;2024-03-06T04:09:52;101976.19;;;2.62;58.08
80749;BME280;70145;53.746;9.970;2024-03-06T04:12:18;101970.19;;;2.55;57.63
80749;BME280;70145;53.746;9.970;2024-03-06T04:14:43;101976.47;;;2.53;57.69
80749;BME280;70145;53.746;9.970;2024-03-06T04:17:09;101974.66;;;2.55;57.65
80749;BME280;70145;53.746;9.970;2024-03-06T04:19:34;101979.13;;;2.53;57.41
80749;BME280;70145;53.746;9.970;2024-03-06T04:21:59;101973.88;;;2.51;57.67
80749;BME280;70145;53.746;9.970;2024-03-06T04:24:24;101978.16;;;2.55;57.55
80749;BME280;70145;53.746;9.970;2024-03-06T04:26:50;101986.03;;;2.58;57.30
80749;BME280;70145;53.746;9.970;2024-03-06T04:29:15;101986.88;;;2.60;57.59
80749;BME280;70145;53.746;9.970;2024-03-06T04:31:41;101986.78;;;2.63;57.28
80749;BME280;70145;53.746;9.970;2024-03-06T04:34:06;101977.91;;;2.63;57.71
80749;BME280;70145;53.746;9.970;2024-03-06T04:36:31;101981.47;;;2.63;57.26
80749;BME280;70145;53.746;9.970;2024-03-06T04:38:56;101985.84;;;2.64;57.33
80749;BME280;70145;53.746;9.970;2024-03-06T04:41:22;101989.41;;;2.65;57.23
80749;BME280;70145;53.746;9.970;2024-03-06T04:43:48;101983.97;;;2.68;57.21
80749;BME280;70145;53.746;9.970;2024-03-06T04:46:15;101995.47;;;2.68;57.67
80749;BME280;70145;53.746;9.970;2024-03-06T04:48:41;101979.47;;;2.70;57.25
80749;BME280;70145;53.746;9.970;2024-03-06T04:51:06;101982.06;;;2.71;56.97
80749;BME280;70145;53.746;9.970;2024-03-06T04:53:31;101986.50;;;2.72;57.06
80749;BME280;70145;53.746;9.970;2024-03-06T04:55:56;101993.53;;;2.73;57.13
80749;BME280;70145;53.746;9.970;2024-03-06T04:58:22;101989.09;;;2.74;56.95
80749;BME280;70145;53.746;9.970;2024-03-06T05:00:47;101993.44;;;2.76;56.83
80749;BME280;70145;53.746;9.970;2024-03-06T05:03:12;102000.53;;;2.76;57.41
80749;BME280;70145;53.746;9.970;2024-03-06T05:05:37;101997.84;;;2.77;57.25
80749;BME280;70145;53.746;9.970;2024-03-06T05:08:05;101997.88;;;2.76;56.96
80749;BME280;70145;53.746;9.970;2024-03-06T05:10:32;102003.22;;;2.76;56.73
80749;BME280;70145;53.746;9.970;2024-03-06T05:12:57;102000.59;;;2.74;57.25
80749;BME280;70145;53.746;9.970;2024-03-06T05:15:22;102007.91;;;2.68;57.10
80749;BME280;70145;53.746;9.970;2024-03-06T05:17:47;102013.19;;;2.69;57.11
80749;BME280;70145;53.746;9.970;2024-03-06T05:20:13;102009.66;;;2.69;56.69
80749;BME280;70145;53.746;9.970;2024-03-06T05:22:39;102015.84;;;2.69;56.95
80749;BME280;70145;53.746;9.970;2024-03-06T05:25:04;102019.41;;;2.68;56.90
80749;BME280;70145;53.746;9.970;2024-03-06T05:27:30;102024.63;;;2.71;56.77
80749;BME280;70145;53.746;9.970;2024-03-06T05:29:57;102023.00;;;2.67;56.78
80749;BME280;70145;53.746;9.970;2024-03-06T05:32:22;102023.94;;;2.66;56.58
80749;BME280;70145;53.746;9.970;2024-03-06T05:34:47;102033.59;;;2.69;56.34
80749;BME280;70145;53.746;9.970;2024-03-06T05:37:13;102038.91;;;2.69;56.63
80749;BME280;70145;53.746;9.970;2024-03-06T05:39:38;102038.03;;;2.68;56.59
80749;BME280;70145;53.746;9.970;2024-03-06T05:42:04;102041.53;;;2.70;56.62
80749;BME280;70145;53.746;9.970;2024-03-06T05:44:33;102052.06;;;2.73;56.94
80749;BME280;70145;53.746;9.970;2024-03-06T05:46:59;102048.56;;;2.71;56.50
80749;BME280;70145;53.746;9.970;2024-03-06T05:49:26;102053.00;;;2.72;56.38
80749;BME280;70145;53.746;9.970;2024-03-06T05:51:52;102061.03;;;2.71;56.85
80749;BME280;70145;53.746;9.970;2024-03-06T05:54:18;102064.53;;;2.71;56.72
80749;BME280;70145;53.746;9.970;2024-03-06T05:56:44;102071.66;;;2.71;56.43
80749;BME280;70145;53.746;9.970;2024-03-06T05:59:09;102078.81;;;2.69;56.49
80749;BME280;70145;53.746;9.970;2024-03-06T06:01:35;102080.59;;;2.68;56.43
80749;BME280;70145;53.746;9.970;2024-03-06T06:04:01;102078.84;;;2.67;56.75
80749;BME280;70145;53.746;9.970;2024-03-06T06:06:26;102082.41;;;2.68;56.26
80749;BME280;70145;53.746;9.970;2024-03-06T06:08:52;102089.50;;;2.67;56.80
80749;BME280;70145;53.746;9.970;2024-03-06T06:11:17;102094.81;;;2.67;56.86
80749;BME280;70145;53.746;9.970;2024-03-06T06:13:42;102089.50;;;2.67;56.63
80749;BME280;70145;53.746;9.970;2024-03-06T06:16:08;102098.31;;;2.69;56.74
80749;BME280;70145;53.746;9.970;2024-03-06T06:18:33;102096.56;;;2.68;56.62
80749;BME280;70145;53.746;9.970;2024-03-06T06:20:59;102100.97;;;2.69;56.22
80749;BME280;70145;53.746;9.970;2024-03-06T06:23:24;102101.03;;;2.68;56.24
80749;BME280;70145;53.746;9.970;2024-03-06T06:25:50;102104.53;;;2.68;56.32
80749;BME280;70145;53.746;9.970;2024-03-06T06:28:15;102116.09;;;2.67;56.51
80749;BME280;70145;53.746;9.970;2024-03-06T06:30:41;102108.16;;;2.66;56.11
80749;BME280;70145;53.746;9.970;2024-03-06T06:33:06;102110.78;;;2.67;56.00
80749;BME280;70145;53.746;9.970;2024-03-06T06:35:33;102116.97;;;2.68;56.08
80749;BME280;70145;53.746;9.970;2024-03-06T06:38:00;102128.47;;;2.68;55.87
80749;BME280;70145;53.746;9.970;2024-03-06T06:40:25;102124.91;;;2.69;56.11
80749;BME280;70145;53.746;9.970;2024-03-06T06:42:50;102128.47;;;2.68;55.93
80749;BME280;70145;53.746;9.970;2024-03-06T06:45:16;102127.56;;;2.69;56.09
80749;BME280;70145;53.746;9.970;2024-03-06T06:47:43;102135.50;;;2.71;56.33
80749;BME280;70145;53.746;9.970;2024-03-06T06:50:08;102142.66;;;2.69;55.98
80749;BME280;70145;53.746;9.970;2024-03-06T06:52:34;102149.78;;;2.67;55.92
80749;BME280;70145;53.746;9.970;2024-03-06T06:55:00;102156.00;;;2.67;56.35
80749;BME280;70145;53.746;9.970;2024-03-06T06:57:25;102156.19;;;2.61;56.32
80749;BME280;70145;53.746;9.970;2024-03-06T06:59:51;102147.31;;;2.62;56.28
80749;BME280;70145;53.746;9.970;2024-03-06T07:02:16;102160.44;;;2.67;56.27
80749;BME280;70145;53.746;9.970;2024-03-06T07:04:42;102161.38;;;2.66;56.48
80749;BME280;70145;53.746;9.970;2024-03-06T07:07:10;102160.47;;;2.65;56.34
80749;BME280;70145;53.746;9.970;2024-03-06T07:09:35;102164.06;;;2.64;56.52
80749;BME280;70145;53.746;9.970;2024-03-06T07:12:01;102173.03;;;2.62;56.68
80749;BME280;70145;53.746;9.970;2024-03-06T07:14:26;102168.53;;;2.64;56.53
80749;BME280;70145;53.746;9.970;2024-03-06T07:16:51;102174.75;;;2.63;56.53
80749;BME280;70145;53.746;9.970;2024-03-06T07:19:17;102167.75;;;2.60;56.73
80749;BME280;70145;53.746;9.970;2024-03-06T07:21:42;102172.09;;;2.63;56.70
80749;BME280;70145;53.746;9.970;2024-03-06T07:24:07;102180.13;;;2.61;56.83
80749;BME280;70145;53.746;9.970;2024-03-06T07:26:33;102179.22;;;2.62;56.72
80749;BME280;70145;53.746;9.970;2024-03-06T07:28:58;102175.63;;;2.63;57.04
80749;BME280;70145;53.746;9.970;2024-03-06T07:31:24;102172.00;;;2.66;56.57
80749;BME280;70145;53.746;9.970;2024-03-06T07:33:50;102187.09;;;2.65;57.01
80749;BME280;70145;53.746;9.970;2024-03-06T07:36:15;102188.84;;;2.66;56.54
80749;BME280;70145;53.746;9.970;2024-03-06T07:38:42;102194.97;;;2.68;56.68
80749;BME280;70145;53.746;9.970;2024-03-06T07:41:07;102190.50;;;2.70;57.14
80749;BME280;70145;53.746;9.970;2024-03-06T07:43:32;102174.44;;;2.73;56.88
80749;BME280;70145;53.746;9.970;2024-03-06T07:45:58;102189.38;;;2.77;57.42
80749;BME280;70145;53.746;9.970;2024-03-06T07:48:24;102190.13;;;2.82;57.00
80749;BME280;70145;53.746;9.970;2024-03-06T07:50:49;102199.72;;;2.88;57.53
80749;BME280;70145;53.746;9.970;2024-03-06T07:53:15;102200.41;;;2.94;57.34
80749;BME280;70145;53.746;9.970;2024-03-06T07:55:41;102192.41;;;2.94;57.28
80749;BME280;70145;53.746;9.970;2024-03-06T07:58:06;102205.59;;;2.99;57.01
80749;BME280;70145;53.746;9.970;2024-03-06T08:00:33;102199.28;;;3.03;57.19
80749;BME280;70145;53.746;9.970;2024-03-06T08:02:58;102201.94;;;3.03;56.71
80749;BME280;70145;53.746;9.970;2024-03-06T08:05:26;102205.31;;;3.08;56.55
80749;BME280;70145;53.746;9.970;2024-03-06T08:07:52;102205.41;;;3.05;56.33
80749;BME280;70145;53.746;9.970;2024-03-06T08:10:18;102200.78;;;3.11;56.54
80749;BME280;70145;53.746;9.970;2024-03-06T08:12:44;102218.34;;;3.17;56.65
80749;BME280;70145;53.746;9.970;2024-03-06T08:15:11;102214.72;;;3.19;56.60
80749;BME280;70145;53.746;9.970;2024-03-06T08:17:41;102223.41;;;3.26;56.77
80749;BME280;70145;53.746;9.970;2024-03-06T08:20:10;102222.31;;;3.32;56.50
80749;BME280;70145;53.746;9.970;2024-03-06T08:22:38;102217.81;;;3.33;56.36
80749;BME280;70145;53.746;9.970;2024-03-06T08:25:11;102227.66;;;3.32;55.26
80749;BME280;70145;53.746;9.970;2024-03-06T08:27:38;102231.03;;;3.37;55.80
80749;BME280;70145;53.746;9.970;2024-03-06T08:30:04;102232.78;;;3.38;55.28
80749;BME280;70145;53.746;9.970;2024-03-06T08:32:31;102239.63;;;3.46;56.14
80749;BME280;70145;53.746;9.970;2024-03-06T08:35:00;102241.44;;;3.44;54.86
80749;BME280;70145;53.746;9.970;2024-03-06T08:37:25;102244.16;;;3.43;54.89
80749;BME280;70145;53.746;9.970;2024-03-06T08:39:51;102243.13;;;3.47;54.38
80749;BME280;70145;53.746;9.970;2024-03-06T08:42:16;102253.78;;;3.47;54.01
80749;BME280;70145;53.746;9.970;2024-03-06T08:44:44;102252.06;;;3.46;54.42
80749;BME280;70145;53.746;9.970;2024-03-06T08:47:09;102253.69;;;3.50;54.23
80749;BME280;70145;53.746;9.970;2024-03-06T08:49:34;102250.22;;;3.48;54.44
80749;BME280;70145;53.746;9.970;2024-03-06T08:52:00;102259.06;;;3.48;53.57
80749;BME280;70145;53.746;9.970;2024-03-06T08:54:25;102262.56;;;3.50;54.20
80749;BME280;70145;53.746;9.970;2024-03-06T08:56:50;102260.84;;;3.49;53.75
80749;BME280;70145;53.746;9.970;2024-03-06T08:59:18;102266.03;;;3.54;54.73
80749;BME280;70145;53.746;9.970;2024-03-06T09:01:44;102260.75;;;3.52;54.27
80749;BME280;70145;53.746;9.970;2024-03-06T09:04:09;102265.13;;;3.53;53.71
80749;BME280;70145;53.746;9.970;2024-03-06T09:06:34;102264.94;;;3.59;54.05
80749;BME280;70145;53.746;9.970;2024-03-06T09:08:59;102262.28;;;3.59;54.09
80749;BME280;70145;53.746;9.970;2024-03-06T09:11:25;102274.44;;;3.68;54.29
80749;BME280;70145;53.746;9.970;2024-03-06T09:13:50;102275.28;;;3.70;54.36
80749;BME280;70145;53.746;9.970;2024-03-06T09:16:15;102275.22;;;3.71;53.77
80749;BME280;70145;53.746;9.970;2024-03-06T09:18:40;102279.44;;;3.78;53.58
80749;BME280;70145;53.746;9.970;2024-03-06T09:21:06;102276.63;;;3.83;53.61
80749;BME280;70145;53.746;9.970;2024-03-06T09:23:31;102278.22;;;3.88;53.93
80749;BME280;70145;53.746;9.970;2024-03-06T09:25:58;102287.84;;;3.92;52.70
80749;BME280;70145;53.746;9.970;2024-03-06T09:28:23;102293.78;;;4.00;53.71
80749;BME280;70145;53.746;9.970;2024-03-06T09:30:48;102287.38;;;4.07;53.87
80749;BME280;70145;53.746;9.970;2024-03-06T09:33:14;102285.38;;;4.14;53.83
80749;BME280;70145;53.746;9.970;2024-03-06T09:35:39;102291.44;;;4.19;53.60
80749;BME280;70145;53.746;9.970;2024-03-06T09:38:10;102286.69;;;4.27;53.07
80749;BME280;70145;53.746;9.970;2024-03-06T09:40:36;102288.22;;;4.34;53.92
80749;BME280;70145;53.746;9.970;2024-03-06T09:43:01;102286.38;;;4.36;53.65
80749;BME280;70145;53.746;9.970;2024-03-06T09:45:27;102299.50;;;4.42;52.83
80749;BME280;70145;53.746;9.970;2024-03-06T09:47:53;102297.63;;;4.44;53.11
80749;BME280;70145;53.746;9.970;2024-03-06T09:50:25;102294.72;;;4.51;52.92
80749;BME280;70145;53.746;9.970;2024-03-06T09:52:52;102291.06;;;4.54;53.07
80749;BME280;70145;53.746;9.970;2024-03-06T09:55:21;102311.22;;;4.62;53.18
80749;BME280;70145;53.746;9.970;2024-03-06T09:57:46;102309.41;;;4.63;53.35
80749;BME280;70145;53.746;9.970;2024-03-06T10:00:12;102305.78;;;4.65;53.31
80749;BME280;70145;53.746;9.970;2024-03-06T10:02:52;102308.22;;;4.71;52.37
80749;BME280;70145;53.746;9.970;2024-03-06T10:05:22;102307.38;;;4.71;51.90
80749;BME280;70145;53.746;9.970;2024-03-06T10:07:49;102311.56;;;4.78;52.54
80749;BME280;70145;53.746;9.970;2024-03-06T10:10:16;102312.25;;;4.83;52.63
80749;BME280;70145;53.746;9.970;2024-03-06T10:12:42;102321.78;;;4.90;52.91
80749;BME280;70145;53.746;9.970;2024-03-06T10:15:08;102316.41;;;4.91;52.87
80749;BME280;70145;53.746;9.970;2024-03-06T10:17:37;102317.16;;;4.95;53.00
80749;BME280;70145;53.746;9.970;2024-03-06T10:20:20;102324.00;;;5.02;52.08
80749;BME280;70145;53.746;9.970;2024-03-06T10:22:56;102319.44;;;5.05;52.25
80749;BME280;70145;53.746;9.970;2024-03-06T10:25:35;102314.03;;;5.07;52.35
80749;BME280;70145;53.746;9.970;2024-03-06T10:28:07;102323.56;;;5.14;53.02
80749;BME280;70145;53.746;9.970;2024-03-06T10:30:38;102328.06;;;5.12;51.89
80749;BME280;70145;53.746;9.970;2024-03-06T10:33:07;102326.13;;;5.17;51.81
80749;BME280;70145;53.746;9.970;2024-03-06T10:35:33;102319.84;;;5.18;50.90
80749;BME280;70145;53.746;9.970;2024-03-06T10:38:03;102329.59;;;5.19;51.03
80749;BME280;70145;53.746;9.970;2024-03-06T10:40:34;102329.34;;;5.25;51.70
80749;BME280;70145;53.746;9.970;2024-03-06T10:43:00;102328.44;;;5.26;50.70
80749;BME280;70145;53.746;9.970;2024-03-06T10:45:48;102327.41;;;5.30;50.61
80749;BME280;70145;53.746;9.970;2024-03-06T10:48:14;102328.16;;;5.33;50.18
80749;BME280;70145;53.746;9.970;2024-03-06T10:50:41;102332.56;;;5.34;50.53
80749;BME280;70145;53.746;9.970;2024-03-06T10:53:14;102326.22;;;5.37;50.50
80749;BME280;70145;53.746;9.970;2024-03-06T10:55:42;102333.56;;;5.32;49.80
80749;BME280;70145;53.746;9.970;2024-03-06T10:58:09;102329.94;;;5.33;50.04
80749;BME280;70145;53.746;9.970;2024-03-06T11:00:40;102338.03;;;5.31;49.36
80749;BME280;70145;53.746;9.970;2024-03-06T11:03:06;102336.22;;;5.32;48.61
80749;BME280;70145;53.746;9.970;2024-03-06T11:05:37;102334.41;;;5.32;48.57
80749;BME280;70145;53.746;9.970;2024-03-06T11:08:07;102334.34;;;5.34;49.04
80749;BME280;70145;53.746;9.970;2024-03-06T11:10:37;102336.22;;;5.32;48.32
80749;BME280;70145;53.746;9.970;2024-03-06T11:13:04;102338.91;;;5.32;48.44
80749;BME280;70145;53.746;9.970;2024-03-06T11:15:34;102331.00;;;5.29;48.54
80749;BME280;70145;53.746;9.970;2024-03-06T11:27:04;102348.31;;;5.42;49.00
80749;BME280;70145;53.746;9.970;2024-03-06T11:30:25;102343.47;;;5.51;49.78
80749;BME280;70145;53.746;9.970;2024-03-06T11:32:59;102343.13;;;5.61;48.82
80749;BME280;70145;53.746;9.970;2024-03-06T11:35:28;102337.47;;;5.70;49.77
80749;BME280;70145;53.746;9.970;2024-03-06T11:37:54;102345.31;;;5.74;49.38
80749;BME280;70145;53.746;9.970;2024-03-06T11:40:24;102345.75;;;5.85;49.06
80749;BME280;70145;53.746;9.970;2024-03-06T11:42:49;102337.66;;;5.87;48.23
80749;BME280;70145;53.746;9.970;2024-03-06T11:45:19;102346.41;;;5.90;48.41
80749;BME280;70145;53.746;9.970;2024-03-06T11:48:02;102345.31;;;5.96;48.75
80749;BME280;70145;53.746;9.970;2024-03-06T11:50:29;102342.47;;;6.00;48.15
80749;BME280;70145;53.746;9.970;2024-03-06T11:52:56;102339.78;;;6.00;47.92
80749;BME280;70145;53.746;9.970;2024-03-06T11:55:23;102352.16;;;6.03;47.83
80749;BME280;70145;53.746;9.970;2024-03-06T11:57:50;102344.06;;;6.04;48.12
80749;BME280;70145;53.746;9.970;2024-03-06T12:00:16;102345.63;;;6.10;48.06
80749;BME280;70145;53.746;9.970;2024-03-06T12:02:42;102351.66;;;6.15;48.39
80749;BME280;70145;53.746;9.970;2024-03-06T12:05:07;102348.72;;;6.21;48.56
80749;BME280;70145;53.746;9.970;2024-03-06T12:07:47;102347.75;;;6.23;47.65
80749;BME280;70145;53.746;9.970;2024-03-06T12:10:13;102348.59;;;6.24;47.37
80749;BME280;70145;53.746;9.970;2024-03-06T12:12:40;102347.81;;;6.22;46.98
80749;BME280;70145;53.746;9.970;2024-03-06T12:15:06;102354.00;;;6.22;46.37
80749;BME280;70145;53.746;9.970;2024-03-06T12:17:42;102351.31;;;6.22;46.48
80749;BME280;70145;53.746;9.970;2024-03-06T12:20:14;102351.31;;;6.22;46.57
80749;BME280;70145;53.746;9.970;2024-03-06T12:22:50;102355.06;;;6.18;47.32
80749;BME280;70145;53.746;9.970;2024-03-06T12:25:22;102355.66;;;6.26;47.11
80749;BME280;70145;53.746;9.970;2024-03-06T12:27:49;102355.47;;;6.29;47.41
80749;BME280;70145;53.746;9.970;2024-03-06T12:30:19;102357.13;;;6.33;47.02
80749;BME280;70145;53.746;9.970;2024-03-06T12:32:59;102357.72;;;6.40;46.91
80749;BME280;70145;53.746;9.970;2024-03-06T12:35:25;102359.63;;;6.38;46.62
80749;BME280;70145;53.746;9.970;2024-03-06T12:37:53;102361.34;;;6.39;46.60
80749;BME280;70145;53.746;9.970;2024-03-06T12:40:19;102354.19;;;6.39;46.42
80749;BME280;70145;53.746;9.970;2024-03-06T12:42:45;102362.22;;;6.39;46.69
80749;BME280;70145;53.746;9.970;2024-03-06T12:45:14;102353.00;;;6.46;47.08
80749;BME280;70145;53.746;9.970;2024-03-06T12:47:41;102362.50;;;6.53;47.48
80749;BME280;70145;53.746;9.970;2024-03-06T12:50:06;102359.63;;;6.58;47.05
80749;BME280;70145;53.746;9.970;2024-03-06T12:52:34;102357.50;;;6.66;46.93
80749;BME280;70145;53.746;9.970;2024-03-06T12:55:00;102352.81;;;6.71;46.20
80749;BME280;70145;53.746;9.970;2024-03-06T12:57:25;102356.09;;;6.77;46.28
80749;BME280;70145;53.746;9.970;2024-03-06T12:59:50;102357.56;;;6.84;46.52
80749;BME280;70145;53.746;9.970;2024-03-06T13:02:16;102353.84;;;6.88;46.42
80749;BME280;70145;53.746;9.970;2024-03-06T13:04:42;102355.44;;;6.92;46.48
80749;BME280;70145;53.746;9.970;2024-03-06T13:07:07;102363.94;;;7.02;46.72